Estación Meteorológica Peña el Pijo (Robertgarden) [ 07/19/24 13:04:34 CEST ]

Fecha Hora Presion(HPa) Temp (°C) Humedad % Rocio (°C) Viento ( m/s) Direccion Lluvia 1Hora(mm) Lluvia 24H(mm) LLuvia Total(mm)
2013-May-12 01:01:14 1012.500 9.8 66 3.7         204.09
2013-May-12 02:01:18 1012.600 8.4 71 3.5         204.09
2013-May-12 03:03:22 1012.000 7.4 74 3.1         204.09
2013-May-12 04:01:19 1011.800 7.0 77 3.2         204.09
2013-May-12 05:01:13 1012.000 8.2 77 4.4         204.09
2013-May-12 06:01:19 1011.900 7.9 78 4.3         204.09
2013-May-12 07:01:14 1012.300 6.8 80 3.6         204.09
2013-May-12 08:01:14 1012.600 8.5 82 5.6         204.09
2013-May-12 09:01:15 1012.800 10.7 81 7.6         204.09
2013-May-12 10:01:14 1013.100 12.9 78 9.1         204.09
2013-May-12 11:01:13 1012.800 17.4 63 10.3 0.8 NNE     204.09
2013-May-12 12:01:14 1012.600 20.5 56 11.4         204.09
2013-May-12 13:01:14 1012.700 21.8 50 10.9         204.09
2013-May-12 14:01:14 1012.600 20.0 53 10.1         204.09
2013-May-12 15:01:14 1012.000 20.8 51 10.3         204.09
2013-May-12 16:01:20 1012.000 16.7 71 11.4 0.6 NE     204.09
2013-May-12 17:01:14 1011.700 21.6 59 13.3         204.09
2013-May-12 18:01:22 1011.400 23.2 50 12.2         204.09
2013-May-12 19:01:16 1011.400 19.6 58 10.6         204.09
2013-May-12 20:01:18 1011.700 18.3 63 11.1         204.09
2013-May-12 21:01:21 1012.400 15.4 72 10.4         204.09
2013-May-12 22:01:16 1013.200 13.8 77 9.8         204.09
2013-May-12 23:01:14 1013.600 12.6 80 9.2         204.09

Temperatura Máxima:23°    Temperatura Mínima:
Presión Máxima:1013.600 Hpa    Presión Mínima:1011.400 Hpa


Volver